sensor_id;sensor_type;location;lat;lon;timestamp;temperature;humidity
2010;DHT22;1008;47.404;8.502;2023-05-25T00:00:07;13.80;99.90
2010;DHT22;1008;47.404;8.502;2023-05-25T00:02:34;13.80;99.90
2010;DHT22;1008;47.404;8.502;2023-05-25T00:05:01;13.80;99.90
2010;DHT22;1008;47.404;8.502;2023-05-25T00:07:28;13.70;99.90
2010;DHT22;1008;47.404;8.502;2023-05-25T00:09:56;14.00;99.90
2010;DHT22;1008;47.404;8.502;2023-05-25T00:12:23;13.80;99.90
2010;DHT22;1008;47.404;8.502;2023-05-25T00:14:50;13.50;99.90
2010;DHT22;1008;47.404;8.502;2023-05-25T00:17:16;13.50;99.90
2010;DHT22;1008;47.404;8.502;2023-05-25T00:19:44;13.70;99.90
2010;DHT22;1008;47.404;8.502;2023-05-25T00:22:11;13.80;99.90
2010;DHT22;1008;47.404;8.502;2023-05-25T00:24:38;13.60;99.90
2010;DHT22;1008;47.404;8.502;2023-05-25T00:27:06;13.70;99.90
2010;DHT22;1008;47.404;8.502;2023-05-25T00:29:34;13.80;99.90
2010;DHT22;1008;47.404;8.502;2023-05-25T00:32:01;13.90;99.90
2010;DHT22;1008;47.404;8.502;2023-05-25T00:34:28;13.50;99.90
2010;DHT22;1008;47.404;8.502;2023-05-25T00:36:54;13.70;99.90
2010;DHT22;1008;47.404;8.502;2023-05-25T00:39:21;13.80;99.90
2010;DHT22;1008;47.404;8.502;2023-05-25T00:41:48;13.70;99.90
2010;DHT22;1008;47.404;8.502;2023-05-25T00:44:16;13.70;99.90
2010;DHT22;1008;47.404;8.502;2023-05-25T00:46:47;13.70;99.90
2010;DHT22;1008;47.404;8.502;2023-05-25T00:49:16;13.60;99.90
2010;DHT22;1008;47.404;8.502;2023-05-25T00:51:44;13.50;99.90
2010;DHT22;1008;47.404;8.502;2023-05-25T00:54:12;13.40;99.90
2010;DHT22;1008;47.404;8.502;2023-05-25T00:56:45;13.50;99.90
2010;DHT22;1008;47.404;8.502;2023-05-25T00:59:19;13.40;99.90
2010;DHT22;1008;47.404;8.502;2023-05-25T01:01:50;13.60;99.90
2010;DHT22;1008;47.404;8.502;2023-05-25T01:04:20;13.50;99.90
2010;DHT22;1008;47.404;8.502;2023-05-25T01:06:48;13.60;99.90
2010;DHT22;1008;47.404;8.502;2023-05-25T01:09:18;13.60;99.90
2010;DHT22;1008;47.404;8.502;2023-05-25T01:11:49;13.60;99.90
2010;DHT22;1008;47.404;8.502;2023-05-25T01:14:19;13.60;99.90
2010;DHT22;1008;47.404;8.502;2023-05-25T01:16:47;13.50;99.90
2010;DHT22;1008;47.404;8.502;2023-05-25T01:19:13;13.50;99.90
2010;DHT22;1008;47.404;8.502;2023-05-25T01:21:46;13.50;99.90
2010;DHT22;1008;47.404;8.502;2023-05-25T01:24:20;13.60;99.90
2010;DHT22;1008;47.404;8.502;2023-05-25T01:26:53;13.60;99.90
2010;DHT22;1008;47.404;8.502;2023-05-25T01:29:22;13.70;99.90
2010;DHT22;1008;47.404;8.502;2023-05-25T01:31:51;13.60;99.90
2010;DHT22;1008;47.404;8.502;2023-05-25T01:34:19;13.90;99.90
2010;DHT22;1008;47.404;8.502;2023-05-25T01:36:48;13.60;99.90
2010;DHT22;1008;47.404;8.502;2023-05-25T01:39:15;13.60;99.90
2010;DHT22;1008;47.404;8.502;2023-05-25T01:41:42;13.50;99.90
2010;DHT22;1008;47.404;8.502;2023-05-25T01:44:09;13.50;99.90
2010;DHT22;1008;47.404;8.502;2023-05-25T01:46:37;13.40;99.90
2010;DHT22;1008;47.404;8.502;2023-05-25T01:49:14;13.40;99.90
2010;DHT22;1008;47.404;8.502;2023-05-25T01:51:52;13.30;99.90
2010;DHT22;1008;47.404;8.502;2023-05-25T01:54:25;13.20;99.90
2010;DHT22;1008;47.404;8.502;2023-05-25T01:56:57;13.40;99.90
2010;DHT22;1008;47.404;8.502;2023-05-25T01:59:26;13.00;99.90
2010;DHT22;1008;47.404;8.502;2023-05-25T02:01:54;13.20;99.90
2010;DHT22;1008;47.404;8.502;2023-05-25T02:04:22;13.10;99.90
2010;DHT22;1008;47.404;8.502;2023-05-25T02:06:51;13.00;99.90
2010;DHT22;1008;47.404;8.502;2023-05-25T02:09:18;12.90;99.90
2010;DHT22;1008;47.404;8.502;2023-05-25T02:11:45;12.80;99.90
2010;DHT22;1008;47.404;8.502;2023-05-25T02:14:12;12.80;99.90
2010;DHT22;1008;47.404;8.502;2023-05-25T02:16:39;12.60;99.90
2010;DHT22;1008;47.404;8.502;2023-05-25T02:19:05;12.60;99.90
2010;DHT22;1008;47.404;8.502;2023-05-25T02:21:32;12.50;99.90
2010;DHT22;1008;47.404;8.502;2023-05-25T02:24:02;12.40;99.90
2010;DHT22;1008;47.404;8.502;2023-05-25T02:26:29;12.30;99.90
2010;DHT22;1008;47.404;8.502;2023-05-25T02:28:56;12.40;99.90
2010;DHT22;1008;47.404;8.502;2023-05-25T02:31:22;12.40;99.90
2010;DHT22;1008;47.404;8.502;2023-05-25T02:33:49;12.40;99.90
2010;DHT22;1008;47.404;8.502;2023-05-25T02:36:16;12.30;99.90
2010;DHT22;1008;47.404;8.502;2023-05-25T02:38:42;12.20;99.90
2010;DHT22;1008;47.404;8.502;2023-05-25T02:41:12;12.10;99.90
2010;DHT22;1008;47.404;8.502;2023-05-25T02:43:40;12.10;99.90
2010;DHT22;1008;47.404;8.502;2023-05-25T02:46:07;12.20;99.90
2010;DHT22;1008;47.404;8.502;2023-05-25T02:48:34;11.80;99.90
2010;DHT22;1008;47.404;8.502;2023-05-25T02:51:01;11.80;99.90
2010;DHT22;1008;47.404;8.502;2023-05-25T02:53:28;11.70;99.90
2010;DHT22;1008;47.404;8.502;2023-05-25T02:55:55;11.60;99.90
2010;DHT22;1008;47.404;8.502;2023-05-25T02:58:23;11.50;99.90
2010;DHT22;1008;47.404;8.502;2023-05-25T03:00:50;11.50;99.90
2010;DHT22;1008;47.404;8.502;2023-05-25T03:03:19;11.40;99.90
2010;DHT22;1008;47.404;8.502;2023-05-25T03:05:45;11.50;99.90
2010;DHT22;1008;47.404;8.502;2023-05-25T03:08:12;11.50;99.90
2010;DHT22;1008;47.404;8.502;2023-05-25T03:10:39;11.50;99.90
2010;DHT22;1008;47.404;8.502;2023-05-25T03:13:05;11.50;99.90
2010;DHT22;1008;47.404;8.502;2023-05-25T03:15:34;11.60;99.90
2010;DHT22;1008;47.404;8.502;2023-05-25T03:18:00;11.60;99.90
2010;DHT22;1008;47.404;8.502;2023-05-25T03:20:27;11.50;99.90
2010;DHT22;1008;47.404;8.502;2023-05-25T03:22:54;11.50;99.90
2010;DHT22;1008;47.404;8.502;2023-05-25T03:25:23;11.50;99.90
2010;DHT22;1008;47.404;8.502;2023-05-25T03:27:51;11.50;99.90
2010;DHT22;1008;47.404;8.502;2023-05-25T03:30:18;11.50;99.90
2010;DHT22;1008;47.404;8.502;2023-05-25T03:32:46;11.50;99.90
2010;DHT22;1008;47.404;8.502;2023-05-25T03:35:12;11.50;99.90
2010;DHT22;1008;47.404;8.502;2023-05-25T03:37:39;11.50;99.90
2010;DHT22;1008;47.404;8.502;2023-05-25T03:40:07;11.50;99.90
2010;DHT22;1008;47.404;8.502;2023-05-25T03:42:37;11.50;99.90
2010;DHT22;1008;47.404;8.502;2023-05-25T03:45:05;11.50;99.90
2010;DHT22;1008;47.404;8.502;2023-05-25T03:47:33;11.50;99.90
2010;DHT22;1008;47.404;8.502;2023-05-25T03:50:02;11.60;99.90
2010;DHT22;1008;47.404;8.502;2023-05-25T03:52:28;11.50;99.90
2010;DHT22;1008;47.404;8.502;2023-05-25T03:54:55;11.60;99.90
2010;DHT22;1008;47.404;8.502;2023-05-25T03:57:22;11.50;99.90
2010;DHT22;1008;47.404;8.502;2023-05-25T03:59:49;11.60;99.90
2010;DHT22;1008;47.404;8.502;2023-05-25T04:02:16;11.60;99.90
2010;DHT22;1008;47.404;8.502;2023-05-25T04:04:42;11.60;99.90
2010;DHT22;1008;47.404;8.502;2023-05-25T04:07:10;11.70;99.90
2010;DHT22;1008;47.404;8.502;2023-05-25T04:09:37;11.60;99.90
2010;DHT22;1008;47.404;8.502;2023-05-25T04:12:04;11.70;99.90
2010;DHT22;1008;47.404;8.502;2023-05-25T04:14:31;11.80;99.90
2010;DHT22;1008;47.404;8.502;2023-05-25T04:16:58;11.90;99.90
2010;DHT22;1008;47.404;8.502;2023-05-25T04:19:25;11.80;99.90
2010;DHT22;1008;47.404;8.502;2023-05-25T04:21:51;11.80;99.90
2010;DHT22;1008;47.404;8.502;2023-05-25T04:24:20;11.90;99.90
2010;DHT22;1008;47.404;8.502;2023-05-25T04:26:47;11.90;99.90
2010;DHT22;1008;47.404;8.502;2023-05-25T04:29:14;12.00;99.90
2010;DHT22;1008;47.404;8.502;2023-05-25T04:31:41;12.00;99.90
2010;DHT22;1008;47.404;8.502;2023-05-25T04:34:10;12.00;99.90
2010;DHT22;1008;47.404;8.502;2023-05-25T04:36:38;12.10;99.90
2010;DHT22;1008;47.404;8.502;2023-05-25T04:39:07;12.20;99.90
2010;DHT22;1008;47.404;8.502;2023-05-25T04:41:35;12.10;99.90
2010;DHT22;1008;47.404;8.502;2023-05-25T04:44:03;12.00;99.90
2010;DHT22;1008;47.404;8.502;2023-05-25T04:46:30;12.20;99.90
2010;DHT22;1008;47.404;8.502;2023-05-25T04:48:57;12.40;99.90
2010;DHT22;1008;47.404;8.502;2023-05-25T04:51:24;12.40;99.90
2010;DHT22;1008;47.404;8.502;2023-05-25T04:53:50;12.60;99.90
2010;DHT22;1008;47.404;8.502;2023-05-25T04:56:17;12.50;99.90
2010;DHT22;1008;47.404;8.502;2023-05-25T04:58:47;12.50;99.90
2010;DHT22;1008;47.404;8.502;2023-05-25T05:01:14;12.50;99.90
2010;DHT22;1008;47.404;8.502;2023-05-25T05:03:41;12.50;99.90
2010;DHT22;1008;47.404;8.502;2023-05-25T05:06:08;12.60;99.90
2010;DHT22;1008;47.404;8.502;2023-05-25T05:08:35;12.80;99.90
2010;DHT22;1008;47.404;8.502;2023-05-25T05:11:02;13.00;99.90
2010;DHT22;1008;47.404;8.502;2023-05-25T05:13:28;12.80;99.90
2010;DHT22;1008;47.404;8.502;2023-05-25T05:15:57;12.70;99.90
2010;DHT22;1008;47.404;8.502;2023-05-25T05:18:23;12.60;99.90
2010;DHT22;1008;47.404;8.502;2023-05-25T05:20:50;12.70;99.90
2010;DHT22;1008;47.404;8.502;2023-05-25T05:23:17;12.90;99.90
2010;DHT22;1008;47.404;8.502;2023-05-25T05:25:43;12.60;99.90
2010;DHT22;1008;47.404;8.502;2023-05-25T05:28:11;12.60;99.90
2010;DHT22;1008;47.404;8.502;2023-05-25T05:30:37;12.60;99.90
2010;DHT22;1008;47.404;8.502;2023-05-25T05:33:06;12.60;99.90
2010;DHT22;1008;47.404;8.502;2023-05-25T05:35:33;12.70;99.90
2010;DHT22;1008;47.404;8.502;2023-05-25T05:38:00;12.70;99.90
2010;DHT22;1008;47.404;8.502;2023-05-25T05:40:27;12.80;99.90
2010;DHT22;1008;47.404;8.502;2023-05-25T05:42:54;12.70;99.90
2010;DHT22;1008;47.404;8.502;2023-05-25T05:45:20;12.60;99.90
2010;DHT22;1008;47.404;8.502;2023-05-25T05:47:47;12.60;99.90
2010;DHT22;1008;47.404;8.502;2023-05-25T05:50:15;12.70;99.90
2010;DHT22;1008;47.404;8.502;2023-05-25T05:52:42;12.80;99.90
2010;DHT22;1008;47.404;8.502;2023-05-25T05:55:09;12.80;99.90
2010;DHT22;1008;47.404;8.502;2023-05-25T05:57:35;12.80;99.90
2010;DHT22;1008;47.404;8.502;2023-05-25T06:00:03;12.80;99.90
2010;DHT22;1008;47.404;8.502;2023-05-25T06:02:31;12.70;99.90
2010;DHT22;1008;47.404;8.502;2023-05-25T06:04:58;12.80;99.90
2010;DHT22;1008;47.404;8.502;2023-05-25T06:07:27;12.70;99.90
2010;DHT22;1008;47.404;8.502;2023-05-25T06:09:55;12.80;99.90
2010;DHT22;1008;47.404;8.502;2023-05-25T06:12:22;13.00;99.90
2010;DHT22;1008;47.404;8.502;2023-05-25T06:14:48;13.30;99.90
2010;DHT22;1008;47.404;8.502;2023-05-25T06:17:16;13.00;99.90
2010;DHT22;1008;47.404;8.502;2023-05-25T06:19:43;13.10;99.90
2010;DHT22;1008;47.404;8.502;2023-05-25T06:22:10;13.20;99.90
2010;DHT22;1008;47.404;8.502;2023-05-25T06:24:38;13.50;99.90
2010;DHT22;1008;47.404;8.502;2023-05-25T06:27:05;13.30;99.90
2010;DHT22;1008;47.404;8.502;2023-05-25T06:29:32;13.50;99.90
2010;DHT22;1008;47.404;8.502;2023-05-25T06:31:59;13.60;99.90
2010;DHT22;1008;47.404;8.502;2023-05-25T06:34:26;13.60;99.90
2010;DHT22;1008;47.404;8.502;2023-05-25T06:36:52;13.60;99.90
2010;DHT22;1008;47.404;8.502;2023-05-25T06:39:19;14.00;99.90
2010;DHT22;1008;47.404;8.502;2023-05-25T06:41:47;13.80;99.90
2010;DHT22;1008;47.404;8.502;2023-05-25T06:44:15;13.60;99.90
2010;DHT22;1008;47.404;8.502;2023-05-25T06:46:42;13.60;99.90
2010;DHT22;1008;47.404;8.502;2023-05-25T06:49:08;13.60;99.90
2010;DHT22;1008;47.404;8.502;2023-05-25T06:51:35;13.60;99.90
2010;DHT22;1008;47.404;8.502;2023-05-25T06:54:02;13.70;99.90
2010;DHT22;1008;47.404;8.502;2023-05-25T06:56:29;13.70;99.90
2010;DHT22;1008;47.404;8.502;2023-05-25T06:58:57;13.70;99.90
2010;DHT22;1008;47.404;8.502;2023-05-25T07:01:24;13.80;99.90
2010;DHT22;1008;47.404;8.502;2023-05-25T07:03:50;13.70;99.90
2010;DHT22;1008;47.404;8.502;2023-05-25T07:06:17;13.60;99.90
2010;DHT22;1008;47.404;8.502;2023-05-25T07:08:44;13.50;99.90
2010;DHT22;1008;47.404;8.502;2023-05-25T07:11:11;13.60;99.90
2010;DHT22;1008;47.404;8.502;2023-05-25T07:13:38;13.80;99.90
2010;DHT22;1008;47.404;8.502;2023-05-25T07:16:06;14.10;99.90
2010;DHT22;1008;47.404;8.502;2023-05-25T07:18:33;14.50;99.90
2010;DHT22;1008;47.404;8.502;2023-05-25T07:21:00;14.80;99.90
2010;DHT22;1008;47.404;8.502;2023-05-25T07:23:28;14.90;99.90
2010;DHT22;1008;47.404;8.502;2023-05-25T07:25:54;15.10;99.90
2010;DHT22;1008;47.404;8.502;2023-05-25T07:28:21;15.20;99.90
2010;DHT22;1008;47.404;8.502;2023-05-25T07:30:48;15.00;99.90
2010;DHT22;1008;47.404;8.502;2023-05-25T07:33:16;14.60;99.90
2010;DHT22;1008;47.404;8.502;2023-05-25T07:35:42;14.40;99.90
2010;DHT22;1008;47.404;8.502;2023-05-25T07:38:09;14.50;99.90
2010;DHT22;1008;47.404;8.502;2023-05-25T07:40:36;14.50;99.90
2010;DHT22;1008;47.404;8.502;2023-05-25T07:43:03;14.60;99.90
2010;DHT22;1008;47.404;8.502;2023-05-25T07:45:29;14.60;99.90
2010;DHT22;1008;47.404;8.502;2023-05-25T07:47:56;14.90;99.90
2010;DHT22;1008;47.404;8.502;2023-05-25T07:50:24;14.80;99.90
2010;DHT22;1008;47.404;8.502;2023-05-25T07:52:51;14.70;99.90
2010;DHT22;1008;47.404;8.502;2023-05-25T07:55:18;14.80;99.90
2010;DHT22;1008;47.404;8.502;2023-05-25T07:57:45;14.90;99.90
2010;DHT22;1008;47.404;8.502;2023-05-25T08:00:13;15.20;99.90
2010;DHT22;1008;47.404;8.502;2023-05-25T08:02:39;15.20;99.90
2010;DHT22;1008;47.404;8.502;2023-05-25T08:05:07;15.30;99.90
2010;DHT22;1008;47.404;8.502;2023-05-25T08:07:35;15.50;99.90
2010;DHT22;1008;47.404;8.502;2023-05-25T08:10:03;15.80;99.90
2010;DHT22;1008;47.404;8.502;2023-05-25T08:12:30;15.70;99.90
2010;DHT22;1008;47.404;8.502;2023-05-25T08:14:57;15.80;99.90
2010;DHT22;1008;47.404;8.502;2023-05-25T08:17:24;16.00;99.90
2010;DHT22;1008;47.404;8.502;2023-05-25T08:19:51;16.20;99.90
2010;DHT22;1008;47.404;8.502;2023-05-25T08:22:17;16.40;99.90
2010;DHT22;1008;47.404;8.502;2023-05-25T08:24:46;16.60;99.90
2010;DHT22;1008;47.404;8.502;2023-05-25T08:27:12;16.50;99.90
2010;DHT22;1008;47.404;8.502;2023-05-25T08:29:39;16.60;99.90
2010;DHT22;1008;47.404;8.502;2023-05-25T08:32:06;16.70;99.90
2010;DHT22;1008;47.404;8.502;2023-05-25T08:34:33;16.40;99.90
2010;DHT22;1008;47.404;8.502;2023-05-25T08:37:00;16.50;99.90
2010;DHT22;1008;47.404;8.502;2023-05-25T08:39:26;16.60;99.90
2010;DHT22;1008;47.404;8.502;2023-05-25T08:41:55;16.60;99.90
2010;DHT22;1008;47.404;8.502;2023-05-25T08:44:21;16.70;99.90
2010;DHT22;1008;47.404;8.502;2023-05-25T08:46:48;16.80;99.90
2010;DHT22;1008;47.404;8.502;2023-05-25T08:49:15;16.80;99.90
2010;DHT22;1008;47.404;8.502;2023-05-25T08:51:47;17.00;99.90
2010;DHT22;1008;47.404;8.502;2023-05-25T08:54:18;17.30;99.90
2010;DHT22;1008;47.404;8.502;2023-05-25T08:56:48;17.10;99.90
2010;DHT22;1008;47.404;8.502;2023-05-25T08:59:30;17.40;99.90
2010;DHT22;1008;47.404;8.502;2023-05-25T09:02:03;17.50;99.90
2010;DHT22;1008;47.404;8.502;2023-05-25T09:04:33;17.80;99.90
2010;DHT22;1008;47.404;8.502;2023-05-25T09:07:00;18.20;99.90
2010;DHT22;1008;47.404;8.502;2023-05-25T09:09:28;18.40;99.90
2010;DHT22;1008;47.404;8.502;2023-05-25T09:11:56;18.60;99.90
2010;DHT22;1008;47.404;8.502;2023-05-25T09:14:24;18.40;99.90
2010;DHT22;1008;47.404;8.502;2023-05-25T09:16:52;18.10;99.90
2010;DHT22;1008;47.404;8.502;2023-05-25T09:19:19;17.90;99.90
2010;DHT22;1008;47.404;8.502;2023-05-25T09:21:46;17.70;99.90
2010;DHT22;1008;47.404;8.502;2023-05-25T09:24:13;17.50;99.90
2010;DHT22;1008;47.404;8.502;2023-05-25T09:26:40;17.50;99.90
2010;DHT22;1008;47.404;8.502;2023-05-25T09:29:09;17.60;99.90
2010;DHT22;1008;47.404;8.502;2023-05-25T09:31:39;17.80;99.90
2010;DHT22;1008;47.404;8.502;2023-05-25T09:34:10;18.00;99.90
2010;DHT22;1008;47.404;8.502;2023-05-25T09:36:37;18.50;99.90
2010;DHT22;1008;47.404;8.502;2023-05-25T09:39:07;18.50;99.90
2010;DHT22;1008;47.404;8.502;2023-05-25T09:41:34;18.40;99.90
2010;DHT22;1008;47.404;8.502;2023-05-25T09:44:02;18.30;99.90
2010;DHT22;1008;47.404;8.502;2023-05-25T09:46:30;18.10;99.90
2010;DHT22;1008;47.404;8.502;2023-05-25T09:49:02;18.30;99.90
2010;DHT22;1008;47.404;8.502;2023-05-25T09:51:29;18.20;99.90
2010;DHT22;1008;47.404;8.502;2023-05-25T09:53:57;18.40;99.90
2010;DHT22;1008;47.404;8.502;2023-05-25T09:56:25;18.30;99.90
2010;DHT22;1008;47.404;8.502;2023-05-25T09:58:52;18.40;99.90
2010;DHT22;1008;47.404;8.502;2023-05-25T10:01:19;18.70;99.90
2010;DHT22;1008;47.404;8.502;2023-05-25T10:03:45;19.20;99.90
2010;DHT22;1008;47.404;8.502;2023-05-25T10:06:14;19.50;99.90
2010;DHT22;1008;47.404;8.502;2023-05-25T10:08:42;19.70;99.90
2010;DHT22;1008;47.404;8.502;2023-05-25T10:11:11;19.60;99.90
2010;DHT22;1008;47.404;8.502;2023-05-25T10:13:39;19.50;99.90
2010;DHT22;1008;47.404;8.502;2023-05-25T10:16:08;19.20;99.90
2010;DHT22;1008;47.404;8.502;2023-05-25T10:18:41;19.10;99.90
2010;DHT22;1008;47.404;8.502;2023-05-25T10:21:10;18.80;99.90
2010;DHT22;1008;47.404;8.502;2023-05-25T10:23:44;19.00;99.90
2010;DHT22;1008;47.404;8.502;2023-05-25T10:26:15;18.60;99.90
2010;DHT22;1008;47.404;8.502;2023-05-25T10:28:44;18.60;99.90
2010;DHT22;1008;47.404;8.502;2023-05-25T10:31:11;18.70;99.90
2010;DHT22;1008;47.404;8.502;2023-05-25T10:33:39;18.50;99.90
2010;DHT22;1008;47.404;8.502;2023-05-25T10:36:06;18.80;99.90
2010;DHT22;1008;47.404;8.502;2023-05-25T10:38:35;18.80;99.90
2010;DHT22;1008;47.404;8.502;2023-05-25T10:41:04;18.60;99.90
2010;DHT22;1008;47.404;8.502;2023-05-25T10:43:31;18.50;99.90
2010;DHT22;1008;47.404;8.502;2023-05-25T10:45:58;18.70;99.90
2010;DHT22;1008;47.404;8.502;2023-05-25T10:48:34;18.20;99.90
2010;DHT22;1008;47.404;8.502;2023-05-25T10:51:01;18.40;99.90
2010;DHT22;1008;47.404;8.502;2023-05-25T10:53:28;18.40;99.90
2010;DHT22;1008;47.404;8.502;2023-05-25T10:56:00;18.40;99.90
2010;DHT22;1008;47.404;8.502;2023-05-25T10:58:30;18.20;99.90
2010;DHT22;1008;47.404;8.502;2023-05-25T11:00:58;18.60;99.90
2010;DHT22;1008;47.404;8.502;2023-05-25T11:03:47;18.50;99.90
2010;DHT22;1008;47.404;8.502;2023-05-25T11:06:15;18.70;99.90
2010;DHT22;1008;47.404;8.502;2023-05-25T11:08:49;18.70;99.90
2010;DHT22;1008;47.404;8.502;2023-05-25T11:11:16;18.70;99.90
2010;DHT22;1008;47.404;8.502;2023-05-25T11:13:45;18.80;99.90
2010;DHT22;1008;47.404;8.502;2023-05-25T11:16:17;18.90;99.90
2010;DHT22;1008;47.404;8.502;2023-05-25T11:18:48;19.00;99.90
2010;DHT22;1008;47.404;8.502;2023-05-25T11:21:20;19.10;99.90
2010;DHT22;1008;47.404;8.502;2023-05-25T11:23:55;19.40;99.90
2010;DHT22;1008;47.404;8.502;2023-05-25T11:26:23;19.10;99.90
2010;DHT22;1008;47.404;8.502;2023-05-25T11:28:54;18.90;99.90
2010;DHT22;1008;47.404;8.502;2023-05-25T11:31:27;19.00;99.90
2010;DHT22;1008;47.404;8.502;2023-05-25T11:33:56;18.70;99.90
2010;DHT22;1008;47.404;8.502;2023-05-25T11:36:23;18.90;99.90
2010;DHT22;1008;47.404;8.502;2023-05-25T11:38:52;19.10;99.90
2010;DHT22;1008;47.404;8.502;2023-05-25T11:41:19;19.30;99.90
2010;DHT22;1008;47.404;8.502;2023-05-25T11:43:47;19.40;99.90
2010;DHT22;1008;47.404;8.502;2023-05-25T11:46:16;19.30;99.90
2010;DHT22;1008;47.404;8.502;2023-05-25T11:48:44;19.60;99.90
2010;DHT22;1008;47.404;8.502;2023-05-25T11:51:11;19.70;99.90
2010;DHT22;1008;47.404;8.502;2023-05-25T11:53:42;19.80;99.90
2010;DHT22;1008;47.404;8.502;2023-05-25T11:56:11;19.80;99.90
2010;DHT22;1008;47.404;8.502;2023-05-25T11:58:38;19.80;99.90
2010;DHT22;1008;47.404;8.502;2023-05-25T12:01:12;20.00;99.90
2010;DHT22;1008;47.404;8.502;2023-05-25T12:03:42;20.30;99.90
2010;DHT22;1008;47.404;8.502;2023-05-25T12:06:22;20.40;99.90
2010;DHT22;1008;47.404;8.502;2023-05-25T12:08:49;20.40;99.90
2010;DHT22;1008;47.404;8.502;2023-05-25T12:11:16;20.30;99.90
2010;DHT22;1008;47.404;8.502;2023-05-25T12:13:43;20.70;99.90
2010;DHT22;1008;47.404;8.502;2023-05-25T12:16:10;21.20;99.90
2010;DHT22;1008;47.404;8.502;2023-05-25T12:18:37;21.50;99.90
2010;DHT22;1008;47.404;8.502;2023-05-25T12:21:05;21.70;99.90
2010;DHT22;1008;47.404;8.502;2023-05-25T12:23:34;21.80;99.90
2010;DHT22;1008;47.404;8.502;2023-05-25T12:26:09;21.70;99.90
2010;DHT22;1008;47.404;8.502;2023-05-25T12:28:36;21.70;99.90
2010;DHT22;1008;47.404;8.502;2023-05-25T12:31:18;21.50;99.90
2010;DHT22;1008;47.404;8.502;2023-05-25T12:33:45;21.00;99.90
2010;DHT22;1008;47.404;8.502;2023-05-25T12:36:13;20.80;99.90
2010;DHT22;1008;47.404;8.502;2023-05-25T12:38:40;20.80;99.90
2010;DHT22;1008;47.404;8.502;2023-05-25T12:41:23;21.40;99.90
2010;DHT22;1008;47.404;8.502;2023-05-25T12:43:49;21.70;99.90
2010;DHT22;1008;47.404;8.502;2023-05-25T12:46:23;22.30;99.90
2010;DHT22;1008;47.404;8.502;2023-05-25T12:48:50;22.10;99.90
2010;DHT22;1008;47.404;8.502;2023-05-25T12:51:18;22.00;99.90
2010;DHT22;1008;47.404;8.502;2023-05-25T12:53:46;22.00;99.90
2010;DHT22;1008;47.404;8.502;2023-05-25T12:56:13;21.80;99.90
2010;DHT22;1008;47.404;8.502;2023-05-25T12:58:39;21.70;99.90
2010;DHT22;1008;47.404;8.502;2023-05-25T13:01:07;21.50;99.90
2010;DHT22;1008;47.404;8.502;2023-05-25T13:03:33;21.40;99.90
2010;DHT22;1008;47.404;8.502;2023-05-25T13:06:01;21.70;99.90
2010;DHT22;1008;47.404;8.502;2023-05-25T13:08:29;21.70;99.90
2010;DHT22;1008;47.404;8.502;2023-05-25T13:10:56;21.60;99.90
2010;DHT22;1008;47.404;8.502;2023-05-25T13:13:23;21.60;99.90
2010;DHT22;1008;47.404;8.502;2023-05-25T13:15:50;21.60;99.90
2010;DHT22;1008;47.404;8.502;2023-05-25T13:18:16;21.60;99.90
2010;DHT22;1008;47.404;8.502;2023-05-25T13:20:43;21.40;99.90
2010;DHT22;1008;47.404;8.502;2023-05-25T13:23:11;21.30;99.90
2010;DHT22;1008;47.404;8.502;2023-05-25T13:25:39;21.20;99.90
2010;DHT22;1008;47.404;8.502;2023-05-25T13:28:06;21.30;99.90
2010;DHT22;1008;47.404;8.502;2023-05-25T13:30:32;21.30;99.90
2010;DHT22;1008;47.404;8.502;2023-05-25T13:32:59;21.40;99.90
2010;DHT22;1008;47.404;8.502;2023-05-25T13:35:26;21.60;99.90
2010;DHT22;1008;47.404;8.502;2023-05-25T13:38:06;21.50;99.90
2010;DHT22;1008;47.404;8.502;2023-05-25T13:40:34;21.30;99.90
2010;DHT22;1008;47.404;8.502;2023-05-25T13:43:02;21.70;99.90
2010;DHT22;1008;47.404;8.502;2023-05-25T13:45:29;21.70;99.90
2010;DHT22;1008;47.404;8.502;2023-05-25T13:47:55;21.50;99.90
2010;DHT22;1008;47.404;8.502;2023-05-25T13:50:23;21.30;99.90
2010;DHT22;1008;47.404;8.502;2023-05-25T13:52:50;21.40;99.90
2010;DHT22;1008;47.404;8.502;2023-05-25T13:55:17;21.40;99.90
2010;DHT22;1008;47.404;8.502;2023-05-25T13:57:44;21.50;99.90
2010;DHT22;1008;47.404;8.502;2023-05-25T14:00:13;21.60;99.90
2010;DHT22;1008;47.404;8.502;2023-05-25T14:02:40;21.30;99.90
2010;DHT22;1008;47.404;8.502;2023-05-25T14:05:07;21.80;99.90
2010;DHT22;1008;47.404;8.502;2023-05-25T14:07:34;21.90;99.90
2010;DHT22;1008;47.404;8.502;2023-05-25T14:10:00;21.70;99.90
2010;DHT22;1008;47.404;8.502;2023-05-25T14:12:27;21.80;99.90
2010;DHT22;1008;47.404;8.502;2023-05-25T14:14:54;22.30;99.90
2010;DHT22;1008;47.404;8.502;2023-05-25T14:17:22;22.10;99.90
2010;DHT22;1008;47.404;8.502;2023-05-25T14:19:49;22.00;99.90
2010;DHT22;1008;47.404;8.502;2023-05-25T14:22:16;22.10;99.90
2010;DHT22;1008;47.404;8.502;2023-05-25T14:24:43;22.30;99.90
2010;DHT22;1008;47.404;8.502;2023-05-25T14:27:10;22.20;99.90
2010;DHT22;1008;47.404;8.502;2023-05-25T14:29:36;22.10;99.90
2010;DHT22;1008;47.404;8.502;2023-05-25T14:32:03;21.70;99.90
2010;DHT22;1008;47.404;8.502;2023-05-25T14:34:32;21.50;99.90
2010;DHT22;1008;47.404;8.502;2023-05-25T14:36:58;21.70;99.90
2010;DHT22;1008;47.404;8.502;2023-05-25T14:39:25;21.80;99.90
2010;DHT22;1008;47.404;8.502;2023-05-25T14:41:52;21.60;99.90
2010;DHT22;1008;47.404;8.502;2023-05-25T14:44:18;21.60;99.90
2010;DHT22;1008;47.404;8.502;2023-05-25T14:46:45;21.90;99.90
2010;DHT22;1008;47.404;8.502;2023-05-25T14:49:12;21.80;99.90
2010;DHT22;1008;47.404;8.502;2023-05-25T14:51:40;21.70;99.90
2010;DHT22;1008;47.404;8.502;2023-05-25T14:54:07;21.60;99.90
2010;DHT22;1008;47.404;8.502;2023-05-25T14:56:35;21.70;99.90
2010;DHT22;1008;47.404;8.502;2023-05-25T14:59:02;21.70;99.90
2010;DHT22;1008;47.404;8.502;2023-05-25T15:01:29;21.40;99.90
2010;DHT22;1008;47.404;8.502;2023-05-25T15:03:56;21.30;99.90
2010;DHT22;1008;47.404;8.502;2023-05-25T15:06:23;21.00;99.90
2010;DHT22;1008;47.404;8.502;2023-05-25T15:08:51;21.10;99.90
2010;DHT22;1008;47.404;8.502;2023-05-25T15:11:18;21.10;99.90
2010;DHT22;1008;47.404;8.502;2023-05-25T15:13:45;21.10;99.90
2010;DHT22;1008;47.404;8.502;2023-05-25T15:16:12;21.20;99.90
2010;DHT22;1008;47.404;8.502;2023-05-25T15:18:38;21.30;99.90
2010;DHT22;1008;47.404;8.502;2023-05-25T15:21:05;21.00;99.90
2010;DHT22;1008;47.404;8.502;2023-05-25T15:23:32;20.90;99.90
2010;DHT22;1008;47.404;8.502;2023-05-25T15:26:00;20.90;99.90
2010;DHT22;1008;47.404;8.502;2023-05-25T15:28:28;20.90;99.90
2010;DHT22;1008;47.404;8.502;2023-05-25T15:30:55;21.00;99.90
2010;DHT22;1008;47.404;8.502;2023-05-25T15:33:21;21.00;99.90
2010;DHT22;1008;47.404;8.502;2023-05-25T15:35:48;21.40;99.90
2010;DHT22;1008;47.404;8.502;2023-05-25T15:38:15;21.80;99.90
2010;DHT22;1008;47.404;8.502;2023-05-25T15:40:42;22.00;99.90
2010;DHT22;1008;47.404;8.502;2023-05-25T15:43:10;22.20;99.90
2010;DHT22;1008;47.404;8.502;2023-05-25T15:45:37;22.80;99.90
2010;DHT22;1008;47.404;8.502;2023-05-25T15:48:04;22.70;99.90
2010;DHT22;1008;47.404;8.502;2023-05-25T15:50:33;22.70;99.90
2010;DHT22;1008;47.404;8.502;2023-05-25T15:53:00;22.90;99.90
2010;DHT22;1008;47.404;8.502;2023-05-25T15:55:27;22.80;99.90
2010;DHT22;1008;47.404;8.502;2023-05-25T15:57:54;23.00;99.90
2010;DHT22;1008;47.404;8.502;2023-05-25T16:00:22;23.10;99.90
2010;DHT22;1008;47.404;8.502;2023-05-25T16:02:49;22.90;99.90
2010;DHT22;1008;47.404;8.502;2023-05-25T16:05:15;22.80;99.90